Hlavní strana
METAR-TAF:

METAR-TAF

Letiště :

Downtown_Memorial_Airport

Spartanburg, Jižní Karolína, Spojené státy americké

zeměpisná šířka: 34-55N, zeměpisná délka: 081-57W, výška: 246 m

Aktuální stav počasí

Zpráva byla vytvořena před 22 minutami, v 23:15 UTC
Západojihozápadní vítr 6 kt
Teplota 8°C
Vlhkost vzduchu 57%
Tlak 1005 hPa
Viditelnost: 16.1 km
Zataženo ve výšce 4400 ft

METAR: KSPA 302315Z AUTO 24006KT 10SM OVC044 08/00 A2968 RMK AO2

Čas: 18:37 (23:37 UTC)


TAF: chybějící

Stav a předpovědi počasí z více než 4 000 letišť (zprávy METAR a TAF).

Červené a žluté tečky na mapě představují dostupné meteorologické stanice.

Když kurzor umístíte na tečku, zobrazí se název stanice.

Pak kliknutím zobrazíte stav a předpověď počasí.

Chcete-li změnit mapu, kliknutím na zelené tlačítko se znaménkem +mapu přiblížíte, kliknutím na zelené tlačítko se znaménkem – mapu oddálíte a kliknutím na zelené šipky přejdete na sousední mapy.


METAR-TAF: